Central Heights, Iowa
Current Conditions -  °F | °C
As of 8:53 PM on Friday 19 Dec 2014 (Local Time) from KMCW Reporting Station
Overcast Overcast  
Wind Chill: 18°   Ceiling: 800
Heat Index: 28°   Visibility: 7mi
Dew Point: 25°   Wind: 12mph
Humidity: 88%   Direction: 160°SSE
Pressure: 30.19"   Gusts: NA
Location:  43.1451°N, 93.1385°W
Report Text: KMCW 200253Z AUTO 16010KT 7SM OVC008 M02/M04 A3019 RMK AO2 SLP233 T10221039 55005
Loading
Personal Weather Stations






























Interactive Weather Map New forecast layout! Learn more

10-Day Weather Forecast

Advertisements
Track Severe Weather on mobile